CAL584 ZSPD-RCKH
Flight info
| Callsign | CAL584 |
|---|---|
| Flight time | N/A |
| Altitude | 32100 |
| Route | MIGOL B591 KASKA/N0475F320 L2 BERBA B591 APU W4 PIDGY T13 LUGIA |
| Aircraft | B738/M-SDE2E3FGHIRWXY/LB1 |
Departure
| Time | N/A |
|---|---|
| Airport | Shanghai Pudong International Airport (ZSPD) |
Arrival
| Time | 2026-05-01 08:38 |
|---|---|
| Airport | Kaohsiung International Airport (RCKH) |
| Time | Latitude | Longitude | Altitude | Speed | Heading |
|---|---|---|---|---|---|
| 2026-05-01 08:17 | 23.46169 | 120.25652 | 20303 ft | 435 kts | 210° |
| 2026-05-01 08:17 | 23.43470 | 120.24139 | 20085 ft | 434 kts | 210° |
| 2026-05-01 08:18 | 23.40766 | 120.22626 | 19850 ft | 432 kts | 210° |
| 2026-05-01 08:18 | 23.35400 | 120.19701 | 19380 ft | 429 kts | 207° |
| 2026-05-01 08:19 | 23.29752 | 120.17496 | 18918 ft | 430 kts | 200° |
| 2026-05-01 08:19 | 23.26906 | 120.16619 | 18655 ft | 428 kts | 198° |
| 2026-05-01 08:19 | 23.23990 | 120.15779 | 18417 ft | 427 kts | 198° |
| 2026-05-01 08:19 | 23.21106 | 120.14964 | 18188 ft | 426 kts | 198° |
| 2026-05-01 08:20 | 23.18260 | 120.14156 | 17957 ft | 425 kts | 198° |
| 2026-05-01 08:20 | 23.15385 | 120.13326 | 17711 ft | 423 kts | 198° |
| 2026-05-01 08:20 | 23.12520 | 120.12485 | 17443 ft | 420 kts | 198° |
| 2026-05-01 08:20 | 23.09704 | 120.11652 | 17196 ft | 418 kts | 199° |
| 2026-05-01 08:21 | 23.06893 | 120.10813 | 16945 ft | 417 kts | 199° |
| 2026-05-01 08:21 | 23.04102 | 120.09976 | 16707 ft | 416 kts | 199° |
| 2026-05-01 08:21 | 23.01299 | 120.09134 | 16471 ft | 415 kts | 199° |
| 2026-05-01 08:21 | 22.98547 | 120.08307 | 16253 ft | 415 kts | 199° |
| 2026-05-01 08:22 | 22.96056 | 120.07558 | 16018 ft | 413 kts | 199° |
| 2026-05-01 08:22 | 22.93276 | 120.06732 | 15780 ft | 411 kts | 198° |
| 2026-05-01 08:22 | 22.90514 | 120.06106 | 15484 ft | 410 kts | 191° |
| 2026-05-01 08:22 | 22.87611 | 120.06030 | 14941 ft | 410 kts | 177° |
| 2026-05-01 08:23 | 22.84836 | 120.06707 | 14360 ft | 409 kts | 165° |
| 2026-05-01 08:23 | 22.82165 | 120.07777 | 13780 ft | 410 kts | 161° |
| 2026-05-01 08:23 | 22.79668 | 120.08895 | 13194 ft | 412 kts | 160° |
| 2026-05-01 08:23 | 22.77132 | 120.10073 | 12569 ft | 410 kts | 159° |
| 2026-05-01 08:24 | 22.74518 | 120.11297 | 12080 ft | 402 kts | 159° |
| 2026-05-01 08:24 | 22.71986 | 120.12472 | 11816 ft | 387 kts | 159° |
| 2026-05-01 08:24 | 22.69563 | 120.13583 | 11579 ft | 374 kts | 160° |
| 2026-05-01 08:24 | 22.67184 | 120.14661 | 11321 ft | 362 kts | 160° |
| 2026-05-01 08:25 | 22.64865 | 120.15702 | 11082 ft | 351 kts | 160° |
| 2026-05-01 08:25 | 22.62643 | 120.16692 | 10851 ft | 340 kts | 160° |
| 2026-05-01 08:25 | 22.60477 | 120.17654 | 10549 ft | 334 kts | 160° |
| 2026-05-01 08:25 | 22.58319 | 120.18610 | 10148 ft | 330 kts | 160° |
| 2026-05-01 08:26 | 22.56225 | 120.19538 | 9739 ft | 327 kts | 160° |
| 2026-05-01 08:26 | 22.54097 | 120.20484 | 9331 ft | 324 kts | 159° |
| 2026-05-01 08:26 | 22.52116 | 120.21608 | 8991 ft | 316 kts | 146° |
| 2026-05-01 08:26 | 22.50526 | 120.23155 | 8547 ft | 307 kts | 133° |
| 2026-05-01 08:27 | 22.49190 | 120.24945 | 8102 ft | 298 kts | 128° |
| 2026-05-01 08:27 | 22.47981 | 120.26699 | 7738 ft | 287 kts | 128° |
| 2026-05-01 08:27 | 22.46785 | 120.28406 | 7396 ft | 276 kts | 129° |
| 2026-05-01 08:27 | 22.45641 | 120.29994 | 7055 ft | 266 kts | 127° |
| 2026-05-01 08:28 | 22.44710 | 120.31686 | 6800 ft | 255 kts | 112° |
| 2026-05-01 08:28 | 22.44325 | 120.33520 | 6562 ft | 245 kts | 98° |
| 2026-05-01 08:28 | 22.44179 | 120.35327 | 6322 ft | 237 kts | 96° |
| 2026-05-01 08:28 | 22.44035 | 120.37076 | 6087 ft | 236 kts | 98° |
| 2026-05-01 08:29 | 22.43845 | 120.38859 | 5849 ft | 236 kts | 99° |
| 2026-05-01 08:29 | 22.43646 | 120.40590 | 5616 ft | 233 kts | 98° |
| 2026-05-01 08:29 | 22.43467 | 120.42339 | 5372 ft | 230 kts | 97° |
| 2026-05-01 08:29 | 22.43300 | 120.44014 | 5140 ft | 220 kts | 97° |
| 2026-05-01 08:30 | 22.43138 | 120.45626 | 4902 ft | 211 kts | 97° |
| 2026-05-01 08:30 | 22.42982 | 120.47170 | 4665 ft | 204 kts | 97° |
| 2026-05-01 08:30 | 22.42829 | 120.48626 | 4434 ft | 201 kts | 97° |
| 2026-05-01 08:30 | 22.42666 | 120.50126 | 4194 ft | 201 kts | 96° |
| 2026-05-01 08:31 | 22.42839 | 120.51600 | 3955 ft | 200 kts | 64° |
| 2026-05-01 08:31 | 22.43778 | 120.52705 | 3718 ft | 203 kts | 29° |
| 2026-05-01 08:31 | 22.45152 | 120.53072 | 3490 ft | 205 kts | 6° |
| 2026-05-01 08:31 | 22.46570 | 120.53104 | 3262 ft | 199 kts | 4° |
| 2026-05-01 08:32 | 22.47953 | 120.53104 | 3014 ft | 198 kts | 3° |
| 2026-05-01 08:32 | 22.49324 | 120.53112 | 2804 ft | 193 kts | 3° |
| 2026-05-01 08:32 | 22.50643 | 120.53127 | 2789 ft | 186 kts | 3° |
| 2026-05-01 08:32 | 22.51970 | 120.53142 | 2788 ft | 190 kts | 4° |
| 2026-05-01 08:33 | 22.53285 | 120.53155 | 2784 ft | 185 kts | 4° |
| 2026-05-01 08:33 | 22.54534 | 120.53133 | 2760 ft | 170 kts | 359° |
| 2026-05-01 08:33 | 22.55674 | 120.52986 | 2754 ft | 164 kts | 355° |
| 2026-05-01 08:33 | 22.56814 | 120.52742 | 2752 ft | 167 kts | 342° |
| 2026-05-01 08:34 | 22.57721 | 120.51966 | 2763 ft | 173 kts | 300° |
| 2026-05-01 08:34 | 22.57935 | 120.50710 | 2719 ft | 176 kts | 259° |
| 2026-05-01 08:34 | 22.57531 | 120.49455 | 2392 ft | 172 kts | 249° |
| 2026-05-01 08:34 | 22.57316 | 120.48212 | 2162 ft | 167 kts | 271° |
| 2026-05-01 08:35 | 22.57345 | 120.46944 | 1966 ft | 169 kts | 273° |
| 2026-05-01 08:35 | 22.57367 | 120.45677 | 1726 ft | 166 kts | 273° |
| 2026-05-01 08:35 | 22.57404 | 120.44441 | 1517 ft | 164 kts | 274° |
| 2026-05-01 08:35 | 22.57450 | 120.43220 | 1302 ft | 160 kts | 273° |
| 2026-05-01 08:36 | 22.57483 | 120.42026 | 1096 ft | 158 kts | 272° |
| 2026-05-01 08:36 | 22.57523 | 120.40818 | 882 ft | 158 kts | 273° |
| 2026-05-01 08:36 | 22.57561 | 120.39654 | 687 ft | 155 kts | 272° |
| 2026-05-01 08:36 | 22.57591 | 120.38489 | 471 ft | 155 kts | 271° |
| 2026-05-01 08:37 | 22.57632 | 120.37336 | 240 ft | 151 kts | 273° |
| 2026-05-01 08:37 | 22.57673 | 120.36257 | 70 ft | 145 kts | 271° |
| 2026-05-01 08:37 | 22.57702 | 120.35305 | 39 ft | 117 kts | 268° |
| 2026-05-01 08:37 | 22.57719 | 120.34666 | 39 ft | 54 kts | 270° |
| 2026-05-01 08:38 | 22.57728 | 120.34345 | 39 ft | 37 kts | 272° |
| 2026-05-01 08:38 | 22.57730 | 120.34183 | 39 ft | 15 kts | 259° |
| 2026-05-01 08:38 | 22.57651 | 120.34135 | 38 ft | 13 kts | 178° |
| 2026-05-01 08:38 | 22.57573 | 120.34135 | 39 ft | 8 kts | 180° |
| 2026-05-01 08:39 | 22.57534 | 120.34134 | 39 ft | 2 kts | 182° |
| 2026-05-01 08:39 | 22.57527 | 120.34134 | 38 ft | 0 kts | 183° |
| 2026-05-01 08:44 | 22.57391 | 120.34119 | 39 ft | 2 kts | 235° |
| 2026-05-01 08:44 | 22.57408 | 120.34073 | 39 ft | 2 kts | 304° |
| 2026-05-01 08:44 | 22.57415 | 120.34053 | 39 ft | 1 kts | 247° |
| 2026-05-01 08:45 | 22.57413 | 120.34029 | 38 ft | 6 kts | 271° |
| 2026-05-01 08:45 | 22.57414 | 120.33972 | 39 ft | 7 kts | 271° |
| 2026-05-01 08:45 | 22.57416 | 120.33830 | 38 ft | 6 kts | 271° |
| 2026-05-01 08:45 | 22.57390 | 120.33775 | 39 ft | 3 kts | 202° |
| 2026-05-01 08:46 | 22.57353 | 120.33776 | 38 ft | 3 kts | 156° |
| 2026-05-01 08:46 | 22.57336 | 120.33810 | 38 ft | 3 kts | 102° |
| 2026-05-01 08:46 | 22.57336 | 120.33852 | 38 ft | 5 kts | 92° |
| 2026-05-01 08:46 | 22.57335 | 120.33875 | 38 ft | 0 kts | 92° |
| 2026-05-01 08:47 | 22.57335 | 120.33876 | 38 ft | 0 kts | 92° |